sensor_id;sensor_type;location;lat;lon;timestamp;pressure;altitude;pressure_sealevel;temperature;humidity
3844;BME280;1937;51.444;6.484;2022-10-17T00:01:12;140612.09;;;15.92;100.00
3844;BME280;1937;51.444;6.484;2022-10-17T00:03:40;141335.22;;;16.11;100.00
3844;BME280;1937;51.444;6.484;2022-10-17T00:06:08;141322.03;;;16.05;100.00
3844;BME280;1937;51.444;6.484;2022-10-17T00:08:35;140940.72;;;15.87;100.00
3844;BME280;1937;51.444;6.484;2022-10-17T00:11:04;141629.06;;;15.91;100.00
3844;BME280;1937;51.444;6.484;2022-10-17T00:13:32;141963.72;;;15.89;100.00
3844;BME280;1937;51.444;6.484;2022-10-17T00:15:59;142322.50;;;15.97;100.00
3844;BME280;1937;51.444;6.484;2022-10-17T00:18:25;142321.28;;;15.97;100.00
3844;BME280;1937;51.444;6.484;2022-10-17T00:20:53;142699.63;;;16.13;100.00
3844;BME280;1937;51.444;6.484;2022-10-17T00:23:20;142327.34;;;16.00;100.00
3844;BME280;1937;51.444;6.484;2022-10-17T00:25:47;141961.31;;;15.88;100.00
3844;BME280;1937;51.444;6.484;2022-10-17T00:28:14;142640.28;;;15.88;100.00
3844;BME280;1937;51.444;6.484;2022-10-17T00:30:41;142637.84;;;15.87;100.00
3844;BME280;1937;51.444;6.484;2022-10-17T00:33:07;142303.19;;;15.89;100.00
3844;BME280;1937;51.444;6.484;2022-10-17T00:35:34;141946.84;;;15.82;100.00
3844;BME280;1937;51.444;6.484;2022-10-17T00:38:02;142640.28;;;15.88;100.00
3844;BME280;1937;51.444;6.484;2022-10-17T00:40:28;142622.09;;;15.81;100.00
3844;BME280;1937;51.444;6.484;2022-10-17T00:42:55;142954.31;;;15.78;100.00
3844;BME280;1937;51.444;6.484;2022-10-17T00:45:24;143652.84;;;15.86;100.00
3844;BME280;1937;51.444;6.484;2022-10-17T00:47:53;144321.09;;;15.81;100.00
3844;BME280;1937;51.444;6.484;2022-10-17T00:50:22;145359.91;;;15.89;100.00
3844;BME280;1937;51.444;6.484;2022-10-17T00:52:49;146369.41;;;15.85;100.00
3844;BME280;1937;51.444;6.484;2022-10-17T00:55:20;147094.13;;;16.04;100.00
3844;BME280;1937;51.444;6.484;2022-10-17T00:57:49;147421.66;;;15.98;100.00
3844;BME280;1937;51.444;6.484;2022-10-17T01:00:17;147781.78;;;16.07;100.00
3844;BME280;1937;51.444;6.484;2022-10-17T01:02:44;147770.50;;;16.02;100.00
3844;BME280;1937;51.444;6.484;2022-10-17T01:05:11;148116.84;;;16.05;100.00
3844;BME280;1937;51.444;6.484;2022-10-17T01:07:39;148467.06;;;16.09;100.00
3844;BME280;1937;51.444;6.484;2022-10-17T01:10:07;148474.63;;;16.12;100.00
3844;BME280;1937;51.444;6.484;2022-10-17T01:12:49;148479.69;;;16.14;100.00
3844;BME280;1937;51.444;6.484;2022-10-17T01:15:29;148121.88;;;16.07;100.00
3844;BME280;1937;51.444;6.484;2022-10-17T01:18:09;148460.78;;;16.06;100.00
3844;BME280;1937;51.444;6.484;2022-10-17T01:20:57;148822.41;;;16.15;100.00
3844;BME280;1937;51.444;6.484;2022-10-17T01:23:41;148808.50;;;16.09;100.00
3844;BME280;1937;51.444;6.484;2022-10-17T01:26:18;148794.63;;;16.04;100.00
3844;BME280;1937;51.444;6.484;2022-10-17T01:29:24;148794.63;;;16.04;100.00
3844;BME280;1937;51.444;6.484;2022-10-17T01:32:01;148789.59;;;16.02;100.00
3844;BME280;1937;51.444;6.484;2022-10-17T01:34:34;148802.22;;;16.07;100.00
3844;BME280;1937;51.444;6.484;2022-10-17T01:37:15;148794.63;;;16.04;100.00
3844;BME280;1937;51.444;6.484;2022-10-17T01:39:49;148790.88;;;16.02;100.00
3844;BME280;1937;51.444;6.484;2022-10-17T01:42:22;148793.34;;;16.03;100.00
3844;BME280;1937;51.444;6.484;2022-10-17T01:44:57;148783.28;;;15.99;100.00
3844;BME280;1937;51.444;6.484;2022-10-17T01:47:30;148771.91;;;15.94;100.00
3844;BME280;1937;51.444;6.484;2022-10-17T01:50:06;149125.97;;;16.00;100.00
3844;BME280;1937;51.444;6.484;2022-10-17T01:52:40;148775.72;;;15.96;100.00
3844;BME280;1937;51.444;6.484;2022-10-17T01:55:12;148789.59;;;16.02;100.00
3844;BME280;1937;51.444;6.484;2022-10-17T01:57:43;148797.16;;;16.05;100.00
3844;BME280;1937;51.444;6.484;2022-10-17T02:00:16;148435.59;;;15.96;100.00
3844;BME280;1937;51.444;6.484;2022-10-17T02:02:50;148436.81;;;15.96;100.00
3844;BME280;1937;51.444;6.484;2022-10-17T02:05:24;148485.97;;;16.16;100.00
3844;BME280;1937;51.444;6.484;2022-10-17T02:07:54;147806.84;;;16.17;100.00
3844;BME280;1937;51.444;6.484;2022-10-17T02:10:29;147452.94;;;16.11;100.00
3844;BME280;1937;51.444;6.484;2022-10-17T02:13:02;147459.22;;;16.14;100.00
3844;BME280;1937;51.444;6.484;2022-10-17T02:15:54;147074.16;;;15.95;100.00
3844;BME280;1937;51.444;6.484;2022-10-17T02:18:43;147112.84;;;16.11;100.00
3844;BME280;1937;51.444;6.484;2022-10-17T02:21:17;146740.41;;;15.98;100.00
3844;BME280;1937;51.444;6.484;2022-10-17T02:23:52;146746.66;;;16.01;100.00
3844;BME280;1937;51.444;6.484;2022-10-17T02:26:28;146731.72;;;15.94;100.00
3844;BME280;1937;51.444;6.484;2022-10-17T02:29:05;146746.66;;;16.01;100.00
3844;BME280;1937;51.444;6.484;2022-10-17T02:31:37;146401.72;;;15.98;100.00
3844;BME280;1937;51.444;6.484;2022-10-17T02:34:11;145686.09;;;15.84;100.00
3844;BME280;1937;51.444;6.484;2022-10-17T02:36:44;145715.78;;;15.96;100.00
3844;BME280;1937;51.444;6.484;2022-10-17T02:39:14;145020.13;;;15.89;100.00
3844;BME280;1937;51.444;6.484;2022-10-17T02:41:44;145021.38;;;15.90;100.00
3844;BME280;1937;51.444;6.484;2022-10-17T02:44:14;145001.66;;;15.82;100.00
3844;BME280;1937;51.444;6.484;2022-10-17T02:46:46;144311.31;;;15.77;100.00
3844;BME280;1937;51.444;6.484;2022-10-17T02:49:22;143954.59;;;15.70;100.00
3844;BME280;1937;51.444;6.484;2022-10-17T02:51:55;144330.88;;;15.85;100.00
3844;BME280;1937;51.444;6.484;2022-10-17T02:54:32;144330.88;;;15.85;100.00
3844;BME280;1937;51.444;6.484;2022-10-17T02:57:07;144981.94;;;15.74;100.00
3844;BME280;1937;51.444;6.484;2022-10-17T02:59:41;145342.63;;;15.82;100.00
3844;BME280;1937;51.444;6.484;2022-10-17T03:02:11;145341.38;;;15.82;100.00
3844;BME280;1937;51.444;6.484;2022-10-17T03:04:44;145708.31;;;15.93;100.00
3844;BME280;1937;51.444;6.484;2022-10-17T03:07:13;145342.63;;;15.82;100.00
3844;BME280;1937;51.444;6.484;2022-10-17T03:09:42;145329.03;;;15.77;100.00
3844;BME280;1937;51.444;6.484;2022-10-17T03:12:10;145652.69;;;15.70;100.00
3844;BME280;1937;51.444;6.484;2022-10-17T03:14:38;146011.00;;;15.78;100.00
3844;BME280;1937;51.444;6.484;2022-10-17T03:17:06;146376.88;;;15.88;100.00
3844;BME280;1937;51.444;6.484;2022-10-17T03:19:35;146017.19;;;15.80;100.00
3844;BME280;1937;51.444;6.484;2022-10-17T03:22:04;145350.00;;;15.85;100.00
3844;BME280;1937;51.444;6.484;2022-10-17T03:24:33;145005.38;;;15.83;100.00
3844;BME280;1937;51.444;6.484;2022-10-17T03:27:01;144673.00;;;15.86;100.00
3844;BME280;1937;51.444;6.484;2022-10-17T03:29:29;144670.53;;;15.85;100.00
3844;BME280;1937;51.444;6.484;2022-10-17T03:31:57;144669.31;;;15.85;100.00
3844;BME280;1937;51.444;6.484;2022-10-17T03:34:26;144671.78;;;15.86;100.00
3844;BME280;1937;51.444;6.484;2022-10-17T03:36:54;145029.97;;;15.93;100.00
3844;BME280;1937;51.444;6.484;2022-10-17T03:39:24;145353.72;;;15.87;100.00
3844;BME280;1937;51.444;6.484;2022-10-17T03:41:56;145377.13;;;15.96;100.00
3844;BME280;1937;51.444;6.484;2022-10-17T03:44:24;145709.56;;;15.93;100.00
3844;BME280;1937;51.444;6.484;2022-10-17T03:46:53;145715.78;;;15.96;100.00
3844;BME280;1937;51.444;6.484;2022-10-17T03:49:21;145712.06;;;15.94;100.00
3844;BME280;1937;51.444;6.484;2022-10-17T03:51:49;145705.84;;;15.92;100.00
3844;BME280;1937;51.444;6.484;2022-10-17T03:54:18;146056.84;;;15.96;100.00
3844;BME280;1937;51.444;6.484;2022-10-17T03:56:47;145730.63;;;16.02;100.00
3844;BME280;1937;51.444;6.484;2022-10-17T03:59:16;145385.78;;;16.00;100.00
3844;BME280;1937;51.444;6.484;2022-10-17T04:01:44;145057.03;;;16.05;100.00
3844;BME280;1937;51.444;6.484;2022-10-17T04:04:12;144702.50;;;15.98;100.00
3844;BME280;1937;51.444;6.484;2022-10-17T04:06:41;144731.97;;;16.11;100.00
3844;BME280;1937;51.444;6.484;2022-10-17T04:09:10;144738.13;;;16.13;100.00
3844;BME280;1937;51.444;6.484;2022-10-17T04:11:39;144383.59;;;16.07;100.00
3844;BME280;1937;51.444;6.484;2022-10-17T04:14:08;144060.91;;;16.14;100.00
3844;BME280;1937;51.444;6.484;2022-10-17T04:16:37;143724.78;;;16.16;100.00
3844;BME280;1937;51.444;6.484;2022-10-17T04:19:05;143736.97;;;16.21;100.00
3844;BME280;1937;51.444;6.484;2022-10-17T04:21:34;143392.38;;;16.19;100.00
3844;BME280;1937;51.444;6.484;2022-10-17T04:24:02;143047.75;;;16.17;100.00
3844;BME280;1937;51.444;6.484;2022-10-17T04:26:31;142732.28;;;16.27;100.00
3844;BME280;1937;51.444;6.484;2022-10-17T04:28:59;142409.47;;;16.34;100.00
3844;BME280;1937;51.444;6.484;2022-10-17T04:31:29;142410.69;;;16.34;100.00
3844;BME280;1937;51.444;6.484;2022-10-17T04:33:58;141713.22;;;16.27;100.00
3844;BME280;1937;51.444;6.484;2022-10-17T04:36:26;141727.66;;;16.33;100.00
3844;BME280;1937;51.444;6.484;2022-10-17T04:38:54;141353.22;;;16.18;100.00
3844;BME280;1937;51.444;6.484;2022-10-17T04:41:23;141377.22;;;16.28;100.00
3844;BME280;1937;51.444;6.484;2022-10-17T04:43:52;141373.59;;;16.27;100.00
3844;BME280;1937;51.444;6.484;2022-10-17T04:46:21;141050.78;;;16.34;100.00
3844;BME280;1937;51.444;6.484;2022-10-17T04:48:52;140319.25;;;16.12;100.00
3844;BME280;1937;51.444;6.484;2022-10-17T04:51:20;141014.91;;;16.19;100.00
3844;BME280;1937;51.444;6.484;2022-10-17T04:53:48;141382.03;;;16.30;100.00
3844;BME280;1937;51.444;6.484;2022-10-17T04:56:19;141376.00;;;16.28;100.00
3844;BME280;1937;51.444;6.484;2022-10-17T04:58:51;141041.22;;;16.30;100.00
3844;BME280;1937;51.444;6.484;2022-10-17T05:01:21;141080.72;;;16.47;100.00
3844;BME280;1937;51.444;6.484;2022-10-17T05:03:52;140714.78;;;16.35;100.00
3844;BME280;1937;51.444;6.484;2022-10-17T05:06:22;141051.97;;;16.34;100.00
3844;BME280;1937;51.444;6.484;2022-10-17T05:08:51;140750.56;;;16.51;100.00
3844;BME280;1937;51.444;6.484;2022-10-17T05:11:21;140052.31;;;16.43;100.00
3844;BME280;1937;51.444;6.484;2022-10-17T05:13:52;139712.75;;;16.43;100.00
3844;BME280;1937;51.444;6.484;2022-10-17T05:16:23;139704.44;;;16.39;100.00
3844;BME280;1937;51.444;6.484;2022-10-17T05:18:54;139716.28;;;16.44;100.00
3844;BME280;1937;51.444;6.484;2022-10-17T05:21:24;139704.44;;;16.39;100.00
3844;BME280;1937;51.444;6.484;2022-10-17T05:23:54;139731.69;;;16.51;100.00
3844;BME280;1937;51.444;6.484;2022-10-17T05:26:23;139034.94;;;16.43;100.00
3844;BME280;1937;51.444;6.484;2022-10-17T05:28:51;138690.78;;;16.41;100.00
3844;BME280;1937;51.444;6.484;2022-10-17T05:31:20;139030.22;;;16.41;100.00
3844;BME280;1937;51.444;6.484;2022-10-17T05:33:49;139376.75;;;16.44;100.00
3844;BME280;1937;51.444;6.484;2022-10-17T05:36:18;138990.13;;;16.24;100.00
3844;BME280;1937;51.444;6.484;2022-10-17T05:38:50;139355.50;;;16.35;100.00
3844;BME280;1937;51.444;6.484;2022-10-17T05:41:19;139013.69;;;16.34;100.00
3844;BME280;1937;51.444;6.484;2022-10-17T05:43:48;138706.06;;;16.48;100.00
3844;BME280;1937;51.444;6.484;2022-10-17T05:46:16;138350.19;;;16.41;100.00
3844;BME280;1937;51.444;6.484;2022-10-17T05:48:45;138347.84;;;16.39;100.00
3844;BME280;1937;51.444;6.484;2022-10-17T05:51:13;138336.09;;;16.34;100.00
3844;BME280;1937;51.444;6.484;2022-10-17T05:53:42;138659.00;;;16.27;100.00
3844;BME280;1937;51.444;6.484;2022-10-17T05:56:12;138671.94;;;16.33;100.00
3844;BME280;1937;51.444;6.484;2022-10-17T05:58:42;138683.69;;;16.38;100.00
3844;BME280;1937;51.444;6.484;2022-10-17T06:01:13;138674.28;;;16.34;100.00
3844;BME280;1937;51.444;6.484;2022-10-17T06:03:42;138681.38;;;16.37;100.00
3844;BME280;1937;51.444;6.484;2022-10-17T06:06:12;138333.75;;;16.33;100.00
3844;BME280;1937;51.444;6.484;2022-10-17T06:08:41;138701.34;;;16.46;100.00
3844;BME280;1937;51.444;6.484;2022-10-17T06:11:11;138000.28;;;16.36;100.00
3844;BME280;1937;51.444;6.484;2022-10-17T06:13:40;138015.53;;;16.43;100.00
3844;BME280;1937;51.444;6.484;2022-10-17T06:16:08;138340.81;;;16.36;100.00
3844;BME280;1937;51.444;6.484;2022-10-17T06:18:36;138697.81;;;16.44;100.00
3844;BME280;1937;51.444;6.484;2022-10-17T06:21:07;138363.09;;;16.46;100.00
3844;BME280;1937;51.444;6.484;2022-10-17T06:23:37;137700.69;;;16.53;100.00
3844;BME280;1937;51.444;6.484;2022-10-17T06:26:06;137701.84;;;16.54;100.00
3844;BME280;1937;51.444;6.484;2022-10-17T06:28:36;137712.34;;;16.58;100.00
3844;BME280;1937;51.444;6.484;2022-10-17T06:31:07;137363.63;;;16.54;100.00
3844;BME280;1937;51.444;6.484;2022-10-17T06:33:36;137370.63;;;16.57;100.00
3844;BME280;1937;51.444;6.484;2022-10-17T06:36:05;137398.63;;;16.69;100.00
3844;BME280;1937;51.444;6.484;2022-10-17T06:38:35;137109.16;;;16.91;100.00
3844;BME280;1937;51.444;6.484;2022-10-17T06:41:06;136108.00;;;16.99;100.00
3844;BME280;1937;51.444;6.484;2022-10-17T06:43:36;135078.22;;;16.94;100.00
3844;BME280;1937;51.444;6.484;2022-10-17T06:46:06;134716.03;;;16.84;100.00
3844;BME280;1937;51.444;6.484;2022-10-17T06:48:34;135048.44;;;16.81;100.00
3844;BME280;1937;51.444;6.484;2022-10-17T06:51:03;134425.75;;;17.05;100.00
3844;BME280;1937;51.444;6.484;2022-10-17T06:53:33;133710.81;;;16.89;100.00
3844;BME280;1937;51.444;6.484;2022-10-17T06:56:02;134373.34;;;16.82;100.00
3844;BME280;1937;51.444;6.484;2022-10-17T06:58:32;133722.16;;;16.94;100.00
3844;BME280;1937;51.444;6.484;2022-10-17T07:01:03;133705.13;;;16.87;100.00
3844;BME280;1937;51.444;6.484;2022-10-17T07:03:32;133736.91;;;17.01;100.00
3844;BME280;1937;51.444;6.484;2022-10-17T07:06:02;132729.31;;;17.05;100.00
3844;BME280;1937;51.444;6.484;2022-10-17T07:08:30;132070.03;;;17.14;100.00
3844;BME280;1937;51.444;6.484;2022-10-17T07:11:04;131429.59;;;17.31;100.00
3844;BME280;1937;51.444;6.484;2022-10-17T07:13:36;129752.59;;;17.40;100.00
3844;BME280;1937;51.444;6.484;2022-10-17T07:16:06;128719.03;;;17.32;100.00
3844;BME280;1937;51.444;6.484;2022-10-17T07:18:35;130065.22;;;17.28;100.00
3844;BME280;1937;51.444;6.484;2022-10-17T07:21:03;130076.25;;;17.33;100.00
3844;BME280;1937;51.444;6.484;2022-10-17T07:23:30;129429.97;;;17.47;100.00
3844;BME280;1937;51.444;6.484;2022-10-17T07:25:59;128402.97;;;17.43;100.00
3844;BME280;1937;51.444;6.484;2022-10-17T07:28:25;128456.31;;;17.68;100.00
3844;BME280;1937;51.444;6.484;2022-10-17T07:30:52;126106.72;;;17.79;100.00
3844;BME280;1937;51.444;6.484;2022-10-17T07:33:22;124438.63;;;17.91;100.00
3844;BME280;1937;51.444;6.484;2022-10-17T07:35:50;120712.91;;;17.91;100.00
3844;BME280;1937;51.444;6.484;2022-10-17T07:38:20;120034.91;;;17.91;100.00
3844;BME280;1937;51.444;6.484;2022-10-17T07:40:53;120055.28;;;18.01;100.00
3844;BME280;1937;51.444;6.484;2022-10-17T07:43:22;119374.28;;;17.99;100.00
3844;BME280;1937;51.444;6.484;2022-10-17T07:45:51;118383.22;;;18.11;100.00
3844;BME280;1937;51.444;6.484;2022-10-17T07:48:22;119066.16;;;18.14;100.00
3844;BME280;1937;51.444;6.484;2022-10-17T07:50:51;118791.09;;;18.46;100.00
3844;BME280;1937;51.444;6.484;2022-10-17T07:53:23;117512.53;;;18.85;100.00
3844;BME280;1937;51.444;6.484;2022-10-17T07:55:51;110056.47;;;18.78;100.00
3844;BME280;1937;51.444;6.484;2022-10-17T07:58:19;107728.06;;;18.98;100.00
3844;BME280;1937;51.444;6.484;2022-10-17T08:00:47;104712.72;;;19.12;98.83
3844;BME280;1937;51.444;6.484;2022-10-17T08:03:17;101089.38;;;19.36;98.90
3844;BME280;1937;51.444;6.484;2022-10-17T08:05:46;96424.72;;;19.38;97.01
3844;BME280;1937;51.444;6.484;2022-10-17T08:08:15;95764.81;;;19.39;97.55
3844;BME280;1937;51.444;6.484;2022-10-17T08:10:43;93756.34;;;19.55;96.58
3844;BME280;1937;51.444;6.484;2022-10-17T08:13:12;94796.00;;;19.78;97.82
3844;BME280;1937;51.444;6.484;2022-10-17T08:15:41;93387.63;;;20.20;95.06
3844;BME280;1937;51.444;6.484;2022-10-17T08:18:09;87188.09;;;20.00;93.39
3844;BME280;1937;51.444;6.484;2022-10-17T08:20:38;87053.94;;;20.08;94.29
3844;BME280;1937;51.444;6.484;2022-10-17T08:23:08;86077.41;;;20.28;93.16
3844;BME280;1937;51.444;6.484;2022-10-17T08:25:39;84490.00;;;20.37;92.33
3844;BME280;1937;51.444;6.484;2022-10-17T08:28:07;83202.13;;;20.39;92.24
3844;BME280;1937;51.444;6.484;2022-10-17T08:30:35;81800.34;;;20.55;90.26
3844;BME280;1937;51.444;6.484;2022-10-17T08:33:04;81979.28;;;20.83;90.90
3844;BME280;1937;51.444;6.484;2022-10-17T08:35:32;80096.75;;;20.65;89.49
3844;BME280;1937;51.444;6.484;2022-10-17T08:38:01;80173.91;;;20.97;88.91
3844;BME280;1937;51.444;6.484;2022-10-17T08:40:32;79537.75;;;20.84;89.09
3844;BME280;1937;51.444;6.484;2022-10-17T08:43:17;78864.22;;;21.05;87.52
3844;BME280;1937;51.444;6.484;2022-10-17T08:45:54;78320.69;;;20.77;88.83
3844;BME280;1937;51.444;6.484;2022-10-17T08:48:28;78616.31;;;20.41;90.67
3844;BME280;1937;51.444;6.484;2022-10-17T08:51:01;78962.41;;;20.35;90.73
3844;BME280;1937;51.444;6.484;2022-10-17T08:53:34;79086.44;;;20.55;90.41
3844;BME280;1937;51.444;6.484;2022-10-17T08:56:10;78868.47;;;20.51;90.20
3844;BME280;1937;51.444;6.484;2022-10-17T08:58:40;78784.81;;;20.39;90.50
3844;BME280;1937;51.444;6.484;2022-10-17T09:01:16;79467.88;;;20.77;90.64
3844;BME280;1937;51.444;6.484;2022-10-17T09:03:57;79225.88;;;20.65;90.52
3844;BME280;1937;51.444;6.484;2022-10-17T09:06:34;79029.47;;;20.79;90.29
3844;BME280;1937;51.444;6.484;2022-10-17T09:09:14;78811.66;;;20.81;90.08
3844;BME280;1937;51.444;6.484;2022-10-17T09:11:50;79081.56;;;21.24;89.18
3844;BME280;1937;51.444;6.484;2022-10-17T09:14:30;77734.47;;;21.03;88.29
3844;BME280;1937;51.444;6.484;2022-10-17T09:17:10;77654.75;;;21.36;87.54
3844;BME280;1937;51.444;6.484;2022-10-17T09:19:48;76913.47;;;21.11;87.46
3844;BME280;1937;51.444;6.484;2022-10-17T09:22:23;77193.03;;;21.06;88.40
3844;BME280;1937;51.444;6.484;2022-10-17T09:24:56;77105.81;;;21.18;88.13
3844;BME280;1937;51.444;6.484;2022-10-17T09:27:33;76924.63;;;20.98;88.21
3844;BME280;1937;51.444;6.484;2022-10-17T09:30:16;77168.03;;;20.83;89.56
3844;BME280;1937;51.444;6.484;2022-10-17T09:32:48;77274.91;;;20.70;89.68
3844;BME280;1937;51.444;6.484;2022-10-17T09:35:17;77943.88;;;20.64;90.66
3844;BME280;1937;51.444;6.484;2022-10-17T09:37:47;77935.84;;;20.56;91.13
3844;BME280;1937;51.444;6.484;2022-10-17T09:40:20;77843.97;;;20.52;90.92
3844;BME280;1937;51.444;6.484;2022-10-17T09:42:52;78181.34;;;20.65;91.07
3844;BME280;1937;51.444;6.484;2022-10-17T09:45:22;78131.44;;;20.63;91.33
3844;BME280;1937;51.444;6.484;2022-10-17T09:47:56;78157.31;;;20.45;92.39
3844;BME280;1937;51.444;6.484;2022-10-17T09:50:30;78340.28;;;20.44;91.78
3844;BME280;1937;51.444;6.484;2022-10-17T09:53:01;78503.19;;;20.55;91.83
3844;BME280;1937;51.444;6.484;2022-10-17T09:55:38;78242.59;;;20.46;91.75
3844;BME280;1937;51.444;6.484;2022-10-17T09:58:12;78416.84;;;20.65;91.31
3844;BME280;1937;51.444;6.484;2022-10-17T10:00:42;78323.06;;;20.65;91.87
3844;BME280;1937;51.444;6.484;2022-10-17T10:03:13;78439.94;;;20.70;91.22
3844;BME280;1937;51.444;6.484;2022-10-17T10:05:57;78567.94;;;20.72;91.70
3844;BME280;1937;51.444;6.484;2022-10-17T10:08:29;78911.28;;;20.36;93.19
3844;BME280;1937;51.444;6.484;2022-10-17T10:10:58;79023.03;;;20.25;93.33
3844;BME280;1937;51.444;6.484;2022-10-17T10:13:32;79618.66;;;20.14;94.72
3844;BME280;1937;51.444;6.484;2022-10-17T10:16:17;79741.81;;;20.39;93.59
3844;BME280;1937;51.444;6.484;2022-10-17T10:18:48;79785.63;;;20.23;94.23
3844;BME280;1937;51.444;6.484;2022-10-17T10:21:18;80155.78;;;20.27;94.42
3844;BME280;1937;51.444;6.484;2022-10-17T10:24:02;80027.66;;;20.35;94.50
3844;BME280;1937;51.444;6.484;2022-10-17T10:26:33;80348.69;;;20.63;93.67
3844;BME280;1937;51.444;6.484;2022-10-17T10:29:17;80311.88;;;20.14;95.63
3844;BME280;1937;51.444;6.484;2022-10-17T10:31:47;81376.38;;;20.48;95.13
3844;BME280;1937;51.444;6.484;2022-10-17T10:34:18;81093.75;;;20.53;94.59
3844;BME280;1937;51.444;6.484;2022-10-17T10:36:52;81016.09;;;20.59;94.32
3844;BME280;1937;51.444;6.484;2022-10-17T10:39:38;80712.69;;;20.47;94.53
3844;BME280;1937;51.444;6.484;2022-10-17T10:42:15;81104.81;;;20.51;94.52
3844;BME280;1937;51.444;6.484;2022-10-17T10:44:48;81372.63;;;20.41;95.36
3844;BME280;1937;51.444;6.484;2022-10-17T10:47:18;81709.75;;;20.38;95.34
3844;BME280;1937;51.444;6.484;2022-10-17T10:49:48;81926.88;;;20.21;96.53
3844;BME280;1937;51.444;6.484;2022-10-17T10:52:23;82601.59;;;19.92;97.47
3844;BME280;1937;51.444;6.484;2022-10-17T10:54:58;83574.50;;;19.84;98.91
3844;BME280;1937;51.444;6.484;2022-10-17T10:57:33;87002.06;;;19.56;100.00
3844;BME280;1937;51.444;6.484;2022-10-17T11:00:11;92752.66;;;19.27;100.00
3844;BME280;1937;51.444;6.484;2022-10-17T11:02:48;101492.97;;;19.29;100.00
3844;BME280;1937;51.444;6.484;2022-10-17T11:05:25;106752.69;;;19.19;100.00
3844;BME280;1937;51.444;6.484;2022-10-17T11:08:02;109837.66;;;19.43;100.00
3844;BME280;1937;51.444;6.484;2022-10-17T11:10:36;110876.22;;;19.55;100.00
3844;BME280;1937;51.444;6.484;2022-10-17T11:13:08;111588.16;;;19.74;100.00
3844;BME280;1937;51.444;6.484;2022-10-17T11:15:46;110566.78;;;19.71;100.00
3844;BME280;1937;51.444;6.484;2022-10-17T11:18:22;111945.78;;;19.84;100.00
3844;BME280;1937;51.444;6.484;2022-10-17T11:20:56;112980.25;;;19.94;100.00
3844;BME280;1937;51.444;6.484;2022-10-17T11:23:31;114702.25;;;20.08;100.00
3844;BME280;1937;51.444;6.484;2022-10-17T11:26:05;113714.88;;;20.24;100.00
3844;BME280;1937;51.444;6.484;2022-10-17T11:28:35;114057.88;;;20.26;100.00
3844;BME280;1937;51.444;6.484;2022-10-17T11:31:08;113732.22;;;20.33;100.00
3844;BME280;1937;51.444;6.484;2022-10-17T11:33:46;115407.88;;;20.22;100.00
3844;BME280;1937;51.444;6.484;2022-10-17T11:36:20;122553.13;;;20.29;100.00
3844;BME280;1937;51.444;6.484;2022-10-17T11:38:53;124915.91;;;20.20;100.00
3844;BME280;1937;51.444;6.484;2022-10-17T11:41:26;123819.03;;;19.83;100.00
3844;BME280;1937;51.444;6.484;2022-10-17T11:44:02;124771.16;;;19.51;100.00
3844;BME280;1937;51.444;6.484;2022-10-17T11:46:36;128493.28;;;19.43;100.00
3844;BME280;1937;51.444;6.484;2022-10-17T11:49:12;129195.44;;;19.53;100.00
3844;BME280;1937;51.444;6.484;2022-10-17T11:51:44;128865.06;;;19.57;100.00
3844;BME280;1937;51.444;6.484;2022-10-17T11:54:16;124811.31;;;19.70;100.00
3844;BME280;1937;51.444;6.484;2022-10-17T11:56:50;119768.38;;;19.96;100.00
3844;BME280;1937;51.444;6.484;2022-10-17T11:59:37;113981.56;;;19.86;100.00
3844;BME280;1937;51.444;6.484;2022-10-17T12:02:13;110593.94;;;19.86;100.00
3844;BME280;1937;51.444;6.484;2022-10-17T12:04:51;108887.53;;;19.78;100.00
3844;BME280;1937;51.444;6.484;2022-10-17T12:07:29;108221.81;;;19.84;100.00
3844;BME280;1937;51.444;6.484;2022-10-17T12:10:06;107195.06;;;19.78;100.00
3844;BME280;1937;51.444;6.484;2022-10-17T12:12:42;105852.28;;;19.83;100.00
3844;BME280;1937;51.444;6.484;2022-10-17T12:15:30;105845.06;;;19.79;100.00
3844;BME280;1937;51.444;6.484;2022-10-17T12:18:02;104491.16;;;19.78;100.00
3844;BME280;1937;51.444;6.484;2022-10-17T12:20:31;105157.38;;;19.73;100.00
3844;BME280;1937;51.444;6.484;2022-10-17T12:23:16;105512.38;;;19.82;100.00
3844;BME280;1937;51.444;6.484;2022-10-17T12:25:52;104512.44;;;19.90;100.00
3844;BME280;1937;51.444;6.484;2022-10-17T12:28:27;104509.78;;;19.89;100.00
3844;BME280;1937;51.444;6.484;2022-10-17T12:30:57;104530.16;;;20.00;100.00
3844;BME280;1937;51.444;6.484;2022-10-17T12:33:33;102836.59;;;19.98;100.00
3844;BME280;1937;51.444;6.484;2022-10-17T12:42:31;97919.25;;;20.07;100.00
3844;BME280;1937;51.444;6.484;2022-10-17T12:45:00;96822.75;;;20.13;99.96
3844;BME280;1937;51.444;6.484;2022-10-17T12:47:36;95442.94;;;20.30;98.76
3844;BME280;1937;51.444;6.484;2022-10-17T12:53:16;91637.75;;;20.28;98.49
3844;BME280;1937;51.444;6.484;2022-10-17T12:55:45;91938.13;;;20.31;98.58
3844;BME280;1937;51.444;6.484;2022-10-17T12:58:15;92110.09;;;20.32;98.39
3844;BME280;1937;51.444;6.484;2022-10-17T13:00:47;91057.88;;;20.10;98.76
3844;BME280;1937;51.444;6.484;2022-10-17T13:03:20;93865.84;;;19.94;100.00
3844;BME280;1937;51.444;6.484;2022-10-17T13:05:54;95164.94;;;20.01;100.00
3844;BME280;1937;51.444;6.484;2022-10-17T13:08:24;94409.44;;;19.98;100.00
3844;BME280;1937;51.444;6.484;2022-10-17T13:10:54;96527.75;;;19.89;100.00
3844;BME280;1937;51.444;6.484;2022-10-17T13:13:35;97413.41;;;19.78;100.00
3844;BME280;1937;51.444;6.484;2022-10-17T13:16:05;101248.50;;;19.57;100.00
3844;BME280;1937;51.444;6.484;2022-10-17T13:18:34;106138.22;;;19.54;100.00
3844;BME280;1937;51.444;6.484;2022-10-17T13:21:13;108163.13;;;19.52;100.00
3844;BME280;1937;51.444;6.484;2022-10-17T13:23:42;109852.56;;;19.51;100.00
3844;BME280;1937;51.444;6.484;2022-10-17T13:26:16;111192.97;;;19.44;100.00
3844;BME280;1937;51.444;6.484;2022-10-17T13:28:58;115243.81;;;19.37;100.00
3844;BME280;1937;51.444;6.484;2022-10-17T13:31:30;117950.13;;;19.35;100.00
3844;BME280;1937;51.444;6.484;2022-10-17T13:33:59;117947.13;;;19.33;100.00
3844;BME280;1937;51.444;6.484;2022-10-17T13:36:30;120984.34;;;19.26;100.00
3844;BME280;1937;51.444;6.484;2022-10-17T13:39:05;118615.19;;;19.28;100.00